Time;durP1;ratioP1;P1;durP2;ratioP2;P2;SDS_P1;SDS_P2;PMS_P1;PMS_P2;Temp;Humidity;BMP_temperature;BMP_pressure;BME280_temperature;BME280_humidity;BME280_pressure;Samples;Min_cycle;Max_cycle;Signal;HPM_P1;HPM_P2
2022/10/06 00:00:43;;;;;;;2.53;2.17;;;18.10;89.90;;;;;;5095904;28;20216;-72
2022/10/06 00:03:09;;;;;;;2.47;2.28;;;18.10;89.80;;;;;;5111508;28;20177;-71
2022/10/06 00:05:35;;;;;;;2.83;2.25;;;18.10;89.80;;;;;;5077560;28;20747;-72
2022/10/06 00:08:02;;;;;;;2.47;2.20;;;18.10;89.80;;;;;;5094892;28;20188;-72
2022/10/06 00:10:28;;;;;;;3.17;2.20;;;18.10;89.70;;;;;;5077806;28;20210;-72
2022/10/06 00:12:54;;;;;;;2.38;2.17;;;18.10;89.80;;;;;;5111206;28;20218;-72
2022/10/06 00:15:26;;;;;;;2.50;2.30;;;18.10;89.80;;;;;;5094381;28;20288;-72
2022/10/06 00:17:52;;;;;;;2.40;2.20;;;18.10;89.60;;;;;;5095471;28;20165;-72
2022/10/06 00:20:18;;;;;;;4.00;2.60;;;18.10;89.60;;;;;;5077434;28;20193;-72
2022/10/06 00:22:47;;;;;;;2.28;2.08;;;18.10;89.70;;;;;;5094259;28;20242;-72
2022/10/06 00:25:17;;;;;;;2.78;2.45;;;18.10;89.50;;;;;;5094188;28;20219;-72
2022/10/06 00:27:46;;;;;;;2.50;2.30;;;18.10;89.70;;;;;;5094285;28;20173;-72
2022/10/06 00:30:16;;;;;;;2.65;2.45;;;18.10;89.60;;;;;;5094056;28;20185;-72
2022/10/06 00:32:55;;;;;;;2.78;2.30;;;18.10;89.60;;;;;;5076999;28;20184;-71
2022/10/06 00:35:24;;;;;;;2.92;2.60;;;18.10;89.40;;;;;;5077111;28;20204;-72
2022/10/06 00:37:50;;;;;;;2.80;2.60;;;18.10;89.30;;;;;;5093932;28;20237;-70
2022/10/06 00:40:20;;;;;;;2.70;2.20;;;18.10;89.20;;;;;;5093788;28;20181;-73
2022/10/06 00:43:02;;;;;;;2.80;2.25;;;18.10;89.20;;;;;;5093943;28;20181;-71
2022/10/06 00:45:33;;;;;;;3.70;2.70;;;18.10;89.20;;;;;;5093751;28;20703;-72
2022/10/06 00:48:06;;;;;;;2.55;2.35;;;18.10;89.20;;;;;;5077142;28;20215;-72
2022/10/06 00:50:34;;;;;;;3.40;2.45;;;18.10;89.10;;;;;;5093960;28;20177;-72
2022/10/06 00:53:02;;;;;;;3.63;2.78;;;18.10;89.00;;;;;;5093609;28;20656;-72
2022/10/06 00:55:27;;;;;;;2.75;2.42;;;18.10;89.10;;;;;;5093504;28;20297;-72
2022/10/06 00:57:53;;;;;;;4.03;2.58;;;18.00;89.00;;;;;;5107500;28;20202;-72
2022/10/06 01:00:20;;;;;;;3.15;2.65;;;18.10;89.10;;;;;;5073361;28;20196;-72
2022/10/06 01:02:58;;;;;;;2.78;2.40;;;18.10;89.10;;;;;;5090229;28;20181;-71
2022/10/06 01:05:33;;;;;;;2.70;2.20;;;18.10;88.90;;;;;;5089828;28;20225;-72
2022/10/06 01:07:59;;;;;;;2.85;2.65;;;18.10;88.70;;;;;;5073254;28;20609;-72
2022/10/06 01:10:25;;;;;;;2.75;2.53;;;18.00;88.70;;;;;;5073435;28;20228;-72
2022/10/06 01:12:51;;;;;;;3.22;2.30;;;18.00;88.50;;;;;;5072889;28;20182;-72
2022/10/06 01:15:20;;;;;;;2.67;2.22;;;18.10;88.70;;;;;;5072993;28;20213;-72
2022/10/06 01:17:56;;;;;;;2.80;2.42;;;18.10;89.30;;;;;;5090085;28;20668;-72
2022/10/06 01:20:23;;;;;;;2.63;2.22;;;18.10;89.30;;;;;;5073025;28;20629;-73
2022/10/06 01:22:59;;;;;;;2.40;2.20;;;18.10;89.30;;;;;;5072611;28;20181;-72
2022/10/06 01:25:25;;;;;;;2.85;2.20;;;18.00;88.40;;;;;;5089575;28;20220;-73
2022/10/06 01:27:54;;;;;;;2.85;2.40;;;18.10;88.50;;;;;;5072449;28;20653;-72
2022/10/06 01:30:34;;;;;;;2.78;2.30;;;18.00;88.10;;;;;;5056588;28;20174;-73
2022/10/06 01:33:00;;;;;;;2.35;2.13;;;18.00;88.40;;;;;;5056134;28;20226;-73
2022/10/06 01:35:26;;;;;;;2.67;2.17;;;18.00;88.40;;;;;;5072198;28;20233;-73
2022/10/06 01:37:53;;;;;;;2.55;2.05;;;18.00;88.10;;;;;;5089191;28;20184;-72
2022/10/06 01:40:19;;;;;;;3.03;2.40;;;18.00;88.00;;;;;;5071744;28;20189;-72
2022/10/06 01:42:45;;;;;;;2.92;2.40;;;18.00;88.80;;;;;;5089661;28;20177;-72
2022/10/06 01:45:11;;;;;;;2.40;2.20;;;18.00;88.00;;;;;;5072359;28;20266;-72
2022/10/06 01:47:37;;;;;;;2.17;2.00;;;18.10;88.20;;;;;;5072316;28;20182;-72
2022/10/06 01:50:04;;;;;;;2.22;2.03;;;18.00;88.00;;;;;;5089204;28;20186;-72
2022/10/06 01:52:30;;;;;;;2.05;1.85;;;18.10;88.20;;;;;;5072190;28;20720;-71
2022/10/06 01:54:56;;;;;;;2.45;2.25;;;18.00;88.00;;;;;;5071778;28;20209;-72
2022/10/06 01:57:23;;;;;;;2.40;2.20;;;18.00;88.00;;;;;;5072261;28;20210;-72
2022/10/06 01:59:48;;;;;;;2.30;2.10;;;18.00;88.20;;;;;;5072356;28;20217;-72
2022/10/06 02:02:14;;;;;;;2.03;1.88;;;18.10;87.90;;;;;;5072388;28;20730;-72
2022/10/06 02:04:40;;;;;;;2.33;2.13;;;18.00;87.70;;;;;;5071841;28;20223;-72
2022/10/06 02:07:06;;;;;;;2.10;1.85;;;18.00;87.70;;;;;;5072123;28;20243;-72
2022/10/06 02:09:40;;;;;;;2.13;1.90;;;18.00;87.70;;;;;;5073204;28;20173;-72
2022/10/06 02:12:07;;;;;;;2.05;1.85;;;18.00;87.70;;;;;;5072248;28;20251;-72
2022/10/06 02:14:37;;;;;;;2.20;2.00;;;18.00;87.60;;;;;;5110222;22;20229;-68
2022/10/06 02:17:03;;;;;;;1.60;1.50;;;18.00;87.50;;;;;;5051417;28;20185;-67
2022/10/06 02:19:28;;;;;;;2.13;1.92;;;18.00;87.70;;;;;;5059260;28;20596;-68
2022/10/06 02:21:57;;;;;;;2.17;1.95;;;18.00;87.50;;;;;;5072217;28;20174;-68
2022/10/06 02:24:23;;;;;;;1.75;1.55;;;18.00;87.50;;;;;;5071171;28;20830;-68
2022/10/06 02:26:49;;;;;;;2.10;1.90;;;18.00;87.50;;;;;;5045237;28;20273;-68
2022/10/06 02:29:14;;;;;;;2.28;2.08;;;18.00;87.50;;;;;;5051283;28;20185;-68
2022/10/06 02:31:40;;;;;;;1.98;1.85;;;18.00;87.30;;;;;;5034974;28;20182;-68
2022/10/06 02:34:06;;;;;;;2.35;2.15;;;18.00;87.30;;;;;;5051437;28;20182;-68
2022/10/06 02:36:32;;;;;;;2.10;1.90;;;18.00;87.40;;;;;;5034888;28;20190;-68
2022/10/06 02:38:58;;;;;;;2.38;2.00;;;18.00;87.30;;;;;;5034696;28;20190;-68
2022/10/06 02:41:24;;;;;;;3.17;2.10;;;18.00;87.30;;;;;;5030283;28;20187;-68
2022/10/06 02:43:53;;;;;;;2.13;1.83;;;18.00;87.30;;;;;;5014965;28;20667;-68
2022/10/06 02:46:20;;;;;;;2.22;2.03;;;18.00;87.20;;;;;;5015212;28;20290;-68
2022/10/06 02:48:50;;;;;;;2.65;1.92;;;18.00;87.10;;;;;;5015719;28;20180;-68
2022/10/06 02:51:19;;;;;;;2.22;1.85;;;18.00;87.00;;;;;;5031191;28;20213;-68
2022/10/06 02:53:47;;;;;;;2.33;2.13;;;18.00;86.90;;;;;;5014943;28;20198;-68
2022/10/06 02:56:23;;;;;;;1.65;1.55;;;18.00;86.90;;;;;;5031082;28;20207;-68
2022/10/06 02:58:51;;;;;;;3.35;2.30;;;18.00;87.00;;;;;;5031225;28;20202;-68
2022/10/06 03:01:26;;;;;;;2.25;2.05;;;18.00;86.90;;;;;;5015826;28;20180;-68
2022/10/06 03:03:54;;;;;;;2.47;1.80;;;18.00;86.80;;;;;;5015076;28;20215;-68
2022/10/06 03:06:29;;;;;;;2.13;1.90;;;18.00;87.00;;;;;;5014609;28;20245;-67
2022/10/06 03:09:09;;;;;;;1.90;1.80;;;18.00;87.70;;;;;;5031446;28;20183;-68
2022/10/06 03:11:41;;;;;;;2.03;1.90;;;18.00;86.90;;;;;;5015238;28;20241;-68
2022/10/06 03:14:09;;;;;;;2.38;1.85;;;17.90;86.90;;;;;;5014764;28;20590;-68
2022/10/06 03:16:39;;;;;;;2.33;1.95;;;18.00;86.80;;;;;;5031111;28;20568;-68
2022/10/06 03:19:09;;;;;;;2.35;1.90;;;18.00;86.70;;;;;;5031349;28;20190;-68
2022/10/06 03:21:42;;;;;;;1.73;1.63;;;18.00;86.70;;;;;;5031366;28;20205;-68
2022/10/06 03:24:10;;;;;;;2.00;1.80;;;18.00;86.70;;;;;;5031030;28;20207;-68
2022/10/06 03:26:44;;;;;;;2.08;1.70;;;18.00;86.70;;;;;;5014912;28;20178;-68
2022/10/06 03:29:11;;;;;;;1.90;1.73;;;17.90;86.40;;;;;;5038582;28;20185;-68
2022/10/06 03:31:40;;;;;;;1.42;1.33;;;18.00;86.40;;;;;;5051038;28;20182;-68
2022/10/06 03:34:06;;;;;;;1.88;1.77;;;18.00;86.40;;;;;;5050841;28;20210;-68
2022/10/06 03:36:34;;;;;;;2.17;1.98;;;18.00;86.40;;;;;;5050596;28;20176;-68
2022/10/06 03:39:03;;;;;;;1.85;1.75;;;17.90;86.10;;;;;;5050770;28;20205;-66
2022/10/06 03:41:34;;;;;;;2.05;1.70;;;17.90;86.30;;;;;;5034523;28;20206;-67
2022/10/06 03:44:01;;;;;;;2.55;2.30;;;17.90;86.20;;;;;;5033906;28;20241;-67
2022/10/06 03:46:32;;;;;;;2.60;1.80;;;18.00;86.40;;;;;;5034712;28;20175;-68
2022/10/06 03:49:01;;;;;;;2.50;2.30;;;17.90;86.10;;;;;;5034661;28;20170;-68
2022/10/06 03:51:37;;;;;;;3.03;2.60;;;17.90;86.80;;;;;;5050598;28;20193;-68
2022/10/06 03:54:04;;;;;;;4.40;3.13;;;17.90;86.10;;;;;;5050421;28;20194;-68
2022/10/06 03:56:35;;;;;;;4.25;3.33;;;17.90;86.90;;;;;;5033793;28;20614;-68
2022/10/06 03:59:07;;;;;;;3.65;2.55;;;17.90;86.10;;;;;;5050126;28;20653;-68
2022/10/06 04:01:41;;;;;;;3.03;2.72;;;17.90;86.10;;;;;;5050401;28;20187;-67
2022/10/06 04:04:10;;;;;;;3.10;2.72;;;17.90;86.00;;;;;;5035544;28;20214;-68
2022/10/06 04:06:40;;;;;;;3.60;2.97;;;17.90;86.10;;;;;;5054553;28;20177;-68
2022/10/06 04:09:12;;;;;;;3.85;3.20;;;17.90;86.00;;;;;;5038016;28;20265;-68
2022/10/06 04:11:40;;;;;;;3.50;3.20;;;17.90;86.00;;;;;;5037941;28;20230;-68
2022/10/06 04:14:11;;;;;;;3.47;3.03;;;17.90;86.00;;;;;;5053612;28;20179;-68
2022/10/06 04:16:47;;;;;;;3.63;2.88;;;17.90;86.10;;;;;;5070744;28;20194;-68
2022/10/06 04:19:16;;;;;;;2.88;2.53;;;17.90;85.90;;;;;;5054039;28;20626;-68
2022/10/06 04:21:46;;;;;;;3.13;2.70;;;17.90;85.90;;;;;;5054280;28;20228;-68
2022/10/06 04:24:18;;;;;;;4.00;2.80;;;17.90;85.80;;;;;;5054314;28;20252;-68
2022/10/06 04:26:51;;;;;;;3.75;3.13;;;17.90;85.90;;;;;;5054169;28;20186;-68
2022/10/06 04:29:17;;;;;;;3.80;3.10;;;17.90;85.80;;;;;;5054115;28;20178;-68
2022/10/06 04:31:47;;;;;;;3.08;2.78;;;17.90;85.70;;;;;;5070417;28;20243;-67
2022/10/06 04:34:20;;;;;;;3.35;2.50;;;17.90;85.60;;;;;;5053443;28;20199;-68
2022/10/06 04:36:46;;;;;;;3.35;3.03;;;17.90;85.60;;;;;;5054051;28;20197;-68
2022/10/06 04:39:14;;;;;;;3.70;3.17;;;17.90;85.60;;;;;;5053530;28;20201;-68
2022/10/06 04:41:46;;;;;;;4.05;3.65;;;17.90;85.50;;;;;;5041341;28;20183;-68
2022/10/06 04:44:15;;;;;;;4.13;3.72;;;17.90;85.50;;;;;;5046997;28;20198;-68
2022/10/06 04:46:41;;;;;;;4.00;3.60;;;17.90;85.50;;;;;;5053822;28;20182;-68
2022/10/06 04:49:07;;;;;;;3.47;3.17;;;17.90;85.60;;;;;;5070376;28;20183;-68
2022/10/06 04:51:33;;;;;;;3.92;3.63;;;17.90;85.60;;;;;;5070175;28;20183;-68
2022/10/06 04:54:02;;;;;;;4.10;3.80;;;17.90;85.40;;;;;;5053807;28;20195;-68
2022/10/06 04:56:31;;;;;;;3.88;3.55;;;17.90;85.60;;;;;;5017312;28;20183;-68
2022/10/06 04:59:00;;;;;;;4.00;3.60;;;17.90;85.40;;;;;;5017301;28;20190;-68
2022/10/06 05:01:36;;;;;;;3.83;3.47;;;17.90;85.40;;;;;;5033607;28;20625;-68
2022/10/06 05:04:06;;;;;;;4.07;3.70;;;17.90;85.60;;;;;;5033146;28;20270;-68
2022/10/06 05:06:40;;;;;;;3.60;3.30;;;17.90;85.50;;;;;;5017190;28;20172;-68
2022/10/06 05:09:14;;;;;;;3.42;3.05;;;17.90;85.40;;;;;;5016743;28;20278;-68
2022/10/06 05:11:45;;;;;;;4.00;3.58;;;17.90;85.40;;;;;;5033113;28;20175;-68
2022/10/06 05:14:14;;;;;;;4.88;3.80;;;17.90;85.30;;;;;;5016907;28;20213;-68
2022/10/06 05:16:43;;;;;;;4.53;3.90;;;17.90;85.20;;;;;;5015966;28;20179;-68
2022/10/06 05:19:10;;;;;;;3.50;3.20;;;17.90;85.30;;;;;;5032972;28;20197;-68
2022/10/06 05:21:38;;;;;;;3.60;3.30;;;17.90;85.90;;;;;;5016977;28;20273;-67
2022/10/06 05:24:05;;;;;;;4.45;3.45;;;17.90;85.20;;;;;;5032391;28;20221;-69
2022/10/06 05:26:34;;;;;;;4.10;3.70;;;17.90;85.20;;;;;;5016740;28;20256;-68
2022/10/06 05:29:03;;;;;;;3.72;3.40;;;17.90;85.20;;;;;;5033010;28;20179;-67
2022/10/06 05:31:31;;;;;;;3.53;3.22;;;17.80;85.00;;;;;;5033949;28;20600;-68
2022/10/06 05:33:58;;;;;;;4.10;3.70;;;17.80;85.00;;;;;;5016177;28;20187;-68
2022/10/06 05:36:29;;;;;;;3.95;3.20;;;17.80;84.90;;;;;;5016212;28;20183;-67
2022/10/06 05:38:57;;;;;;;3.85;3.47;;;17.80;84.90;;;;;;5016147;28;20226;-68
2022/10/06 05:41:30;;;;;;;3.70;3.40;;;17.80;84.80;;;;;;5032593;28;20283;-68
2022/10/06 05:43:58;;;;;;;3.72;3.38;;;17.80;84.80;;;;;;5015942;28;20207;-67
2022/10/06 05:46:28;;;;;;;4.32;3.45;;;17.80;84.80;;;;;;5032361;28;20183;-68
2022/10/06 05:49:06;;;;;;;4.90;3.10;;;17.90;84.80;;;;;;5032264;28;20236;-68
2022/10/06 05:51:34;;;;;;;3.42;3.13;;;17.90;84.80;;;;;;5015966;28;20225;-68
2022/10/06 05:54:07;;;;;;;3.75;3.45;;;17.80;84.70;;;;;;5016747;28;20294;-68
2022/10/06 05:56:36;;;;;;;3.80;3.40;;;17.90;84.70;;;;;;5032418;28;20274;-69
2022/10/06 05:59:04;;;;;;;3.40;3.10;;;17.80;84.70;;;;;;5015826;28;20273;-69
2022/10/06 06:01:38;;;;;;;4.05;3.53;;;17.80;84.80;;;;;;5032433;28;20190;-69
2022/10/06 06:04:12;;;;;;;3.75;3.35;;;17.80;84.70;;;;;;5015661;28;20341;-68
2022/10/06 06:06:50;;;;;;;3.47;3.17;;;17.80;84.70;;;;;;5016927;28;20646;-68
2022/10/06 06:09:21;;;;;;;3.75;3.45;;;17.80;84.60;;;;;;5015401;28;20179;-68
2022/10/06 06:11:54;;;;;;;4.65;3.45;;;17.80;84.60;;;;;;5030592;28;20217;-69
2022/10/06 06:17:25;;;;;;;3.88;3.40;;;17.80;84.60;;;;;;5031106;28;20179;-68
2022/10/06 06:19:50;;;;;;;3.67;3.33;;;17.80;84.50;;;;;;5014928;28;20237;-68
2022/10/06 06:22:16;;;;;;;4.85;3.30;;;17.90;84.60;;;;;;5014674;28;20191;-68
2022/10/06 06:24:44;;;;;;;3.60;3.30;;;17.80;84.50;;;;;;5014987;28;20215;-69
2022/10/06 06:27:10;;;;;;;4.05;3.33;;;17.90;84.60;;;;;;5014396;28;20189;-68
2022/10/06 06:29:38;;;;;;;3.30;3.00;;;17.80;84.50;;;;;;5031357;28;20194;-68
2022/10/06 06:32:05;;;;;;;3.45;2.97;;;17.90;84.60;;;;;;5014553;28;20218;-69
2022/10/06 06:34:31;;;;;;;4.13;3.30;;;17.90;84.50;;;;;;5014515;28;20203;-68
2022/10/06 06:36:57;;;;;;;4.53;3.25;;;17.90;84.60;;;;;;5014533;28;20253;-68
2022/10/06 06:39:24;;;;;;;3.75;3.28;;;17.90;84.60;;;;;;5014972;28;20179;-68
2022/10/06 06:41:50;;;;;;;3.35;3.05;;;17.90;84.50;;;;;;5031058;28;20190;-68
2022/10/06 06:44:40;;;;;;;3.92;3.05;;;17.90;84.50;;;;;;5023882;28;20297;-69
2022/10/06 06:47:28;;;;;;;3.45;3.10;;;17.90;84.50;;;;;;5064352;28;20244;-68
2022/10/06 06:49:57;;;;;;;3.38;2.83;;;17.90;84.50;;;;;;5034442;28;20288;-68
2022/10/06 06:52:24;;;;;;;3.60;3.30;;;17.90;84.50;;;;;;5062756;28;20182;-68
2022/10/06 06:54:50;;;;;;;4.18;3.58;;;17.90;84.50;;;;;;5050570;28;20206;-68
2022/10/06 06:57:17;;;;;;;3.65;3.17;;;17.90;84.50;;;;;;5050664;28;20258;-68
2022/10/06 06:59:44;;;;;;;3.72;3.42;;;17.90;84.40;;;;;;5050563;28;20186;-68
2022/10/06 07:02:12;;;;;;;3.75;3.45;;;17.90;84.40;;;;;;5067338;28;20729;-68
2022/10/06 07:04:42;;;;;;;3.63;3.33;;;17.90;84.50;;;;;;5050335;28;20229;-68
2022/10/06 07:07:11;;;;;;;4.82;3.58;;;17.90;84.50;;;;;;5050529;28;20185;-68
2022/10/06 07:09:37;;;;;;;4.30;3.30;;;17.90;84.50;;;;;;5050370;28;20208;-68
2022/10/06 07:12:10;;;;;;;4.43;3.47;;;17.90;84.60;;;;;;5067163;28;20572;-68
2022/10/06 07:25:05;;;;;;;4.70;3.55;;;17.90;84.70;;;;;;5033914;28;20226;-68
2022/10/06 07:25:39;;;;;;;4.35;3.72;;;18.00;84.50;;;;;;5066677;28;20222;-68
2022/10/06 07:28:11;;;;;;;6.22;3.80;;;18.00;84.60;;;;;;5034167;28;20232;-68
2022/10/06 07:30:38;;;;;;;4.25;3.85;;;18.00;84.70;;;;;;5067097;28;20579;-68
2022/10/06 07:33:17;;;;;;;4.13;3.65;;;18.00;84.70;;;;;;5050163;28;20273;-68
2022/10/06 07:35:44;;;;;;;4.43;4.03;;;18.00;85.00;;;;;;5050010;28;20202;-68
2022/10/06 07:38:11;;;;;;;3.90;3.50;;;18.00;85.00;;;;;;5050169;28;20182;-69
2022/10/06 07:40:44;;;;;;;7.03;3.55;;;18.00;85.00;;;;;;5038850;28;20183;-68
2022/10/06 07:43:12;;;;;;;4.85;3.72;;;18.00;85.10;;;;;;5054333;28;20197;-68
2022/10/06 07:45:45;;;;;;;4.63;3.50;;;18.00;85.20;;;;;;5050536;28;20700;-69
2022/10/06 07:48:20;;;;;;;4.22;3.20;;;18.00;85.20;;;;;;5018492;28;20662;-70
2022/10/06 07:50:51;;;;;;;3.20;2.92;;;17.90;85.10;;;;;;5034116;28;20182;-68
2022/10/06 07:53:28;;;;;;;3.78;3.30;;;18.00;85.30;;;;;;5019109;28;20198;-68
2022/10/06 07:56:14;;;;;;;4.00;3.50;;;18.00;85.30;;;;;;5034004;28;20221;-68
2022/10/06 07:58:43;;;;;;;3.67;3.08;;;18.00;85.30;;;;;;5017991;28;20183;-68
2022/10/06 08:01:12;;;;;;;4.00;3.30;;;18.00;85.40;;;;;;5017226;28;20183;-68
2022/10/06 08:03:40;;;;;;;3.08;2.88;;;18.00;85.60;;;;;;5017137;28;20214;-68
2022/10/06 08:06:13;;;;;;;3.50;3.20;;;18.00;85.50;;;;;;5033713;28;20246;-68
2022/10/06 08:08:40;;;;;;;3.92;3.13;;;18.00;85.70;;;;;;5033895;28;20191;-68
2022/10/06 08:11:06;;;;;;;3.40;3.10;;;18.00;85.50;;;;;;5033706;28;20175;-68
2022/10/06 08:13:37;;;;;;;5.20;3.45;;;18.00;85.60;;;;;;5050096;28;20183;-68
2022/10/06 08:16:18;;;;;;;3.40;2.83;;;18.00;85.80;;;;;;5112224;22;20311;-73
2022/10/06 08:18:53;;;;;;;3.47;3.08;;;18.00;86.10;;;;;;5093973;28;20283;-73
2022/10/06 08:21:25;;;;;;;3.88;3.42;;;18.00;86.00;;;;;;5093771;28;20176;-73
2022/10/06 08:23:53;;;;;;;3.38;3.08;;;18.00;86.10;;;;;;5093460;28;20213;-73
2022/10/06 08:26:21;;;;;;;3.60;3.30;;;18.00;86.20;;;;;;5073660;28;20201;-73
2022/10/06 08:28:50;;;;;;;3.40;3.10;;;18.00;86.20;;;;;;5073416;28;20192;-73
2022/10/06 08:31:20;;;;;;;3.25;2.95;;;18.00;86.30;;;;;;5073255;28;20265;-73
2022/10/06 08:33:47;;;;;;;3.55;2.97;;;18.00;86.20;;;;;;5056364;28;20256;-73
2022/10/06 08:36:19;;;;;;;3.72;3.25;;;18.00;86.10;;;;;;5073430;28;20216;-73
2022/10/06 08:38:49;;;;;;;3.30;3.00;;;18.00;86.30;;;;;;5073190;28;20185;-73
2022/10/06 08:41:21;;;;;;;3.33;2.88;;;18.00;86.30;;;;;;5056867;28;20220;-73
2022/10/06 08:44:20;;;;;;;3.25;2.95;;;18.00;86.30;;;;;;5072822;28;20221;-73
2022/10/06 08:47:18;;;;;;;3.65;3.15;;;18.00;86.50;;;;;;5074101;28;20204;-73
2022/10/06 08:49:47;;;;;;;3.25;2.83;;;18.00;86.80;;;;;;5052834;28;20263;-73
2022/10/06 08:52:47;;;;;;;3.22;2.60;;;18.00;86.80;;;;;;5066149;28;20181;-73
2022/10/06 08:55:28;;;;;;;3.58;3.00;;;18.00;86.80;;;;;;5055750;28;20292;-73
2022/10/06 08:58:16;;;;;;;3.35;2.78;;;18.00;86.80;;;;;;5056396;28;20200;-73
2022/10/06 09:00:42;;;;;;;3.35;2.80;;;18.00;87.10;;;;;;5072906;28;20186;-73
2022/10/06 09:03:22;;;;;;;3.90;2.85;;;18.00;87.00;;;;;;5073985;28;20200;-73
2022/10/06 09:05:54;;;;;;;3.72;2.90;;;18.00;87.10;;;;;;5089197;28;20241;-73
2022/10/06 09:09:20;;;;;;;2.97;2.67;;;18.00;87.00;;;;;;5072708;28;20200;-73
2022/10/06 09:12:27;;;;;;;2.60;2.40;;;18.00;87.10;;;;;;5069365;28;20198;-73
2022/10/06 09:15:05;;;;;;;4.53;2.90;;;18.00;87.30;;;;;;5055636;28;20209;-73
2022/10/06 09:18:01;;;;;;;2.70;2.45;;;18.00;87.30;;;;;;5055805;28;20213;-73
2022/10/06 09:20:49;;;;;;;2.63;2.42;;;18.00;87.30;;;;;;5072619;28;20288;-73
2022/10/06 09:23:46;;;;;;;2.55;2.35;;;18.00;87.50;;;;;;5055583;28;20211;-73
2022/10/06 09:26:09;;;;;;;3.10;2.80;;;18.00;87.40;;;;;;5072057;28;20213;-73
2022/10/06 09:28:35;;;;;;;3.08;2.67;;;18.00;87.20;;;;;;5072193;28;20185;-73
2022/10/06 09:31:02;;;;;;;3.42;2.90;;;18.00;87.20;;;;;;5073362;28;20190;-73
2022/10/06 09:33:38;;;;;;;2.70;2.50;;;18.00;87.40;;;;;;5055440;28;20190;-73
2022/10/06 09:36:08;;;;;;;2.53;2.33;;;18.00;87.40;;;;;;5055434;28;20213;-73
2022/10/06 09:38:55;;;;;;;3.00;2.67;;;18.00;87.50;;;;;;5071844;28;20181;-73
2022/10/06 09:41:33;;;;;;;2.88;2.50;;;18.00;87.40;;;;;;5072073;28;20239;-73
2022/10/06 09:44:04;;;;;;;2.70;2.50;;;18.00;87.40;;;;;;5071703;28;20209;-73
2022/10/06 09:46:40;;;;;;;2.85;2.55;;;18.00;87.60;;;;;;5055364;28;20244;-72
2022/10/06 09:49:24;;;;;;;2.42;2.22;;;18.00;87.40;;;;;;5072724;28;20180;-72
2022/10/06 09:52:13;;;;;;;2.50;2.30;;;18.00;87.60;;;;;;5066391;28;20207;-72
2022/10/06 09:54:42;;;;;;;2.80;2.42;;;18.00;87.50;;;;;;5054375;28;20194;-72
2022/10/06 09:57:16;;;;;;;2.58;2.38;;;18.00;87.60;;;;;;5089192;28;20574;-72
2022/10/06 09:59:45;;;;;;;2.58;2.38;;;18.00;88.10;;;;;;5064403;28;20268;-72
2022/10/06 10:02:38;;;;;;;2.70;2.50;;;18.10;87.50;;;;;;5051482;28;20550;-72
2022/10/06 10:05:18;;;;;;;2.33;2.13;;;18.00;87.40;;;;;;5057218;28;20218;-72
2022/10/06 10:07:46;;;;;;;2.50;2.30;;;18.10;87.60;;;;;;5035453;28;20191;-73
2022/10/06 10:10:23;;;;;;;2.58;2.33;;;18.10;87.20;;;;;;5035428;28;20187;-73
2022/10/06 10:12:58;;;;;;;2.58;2.38;;;18.10;87.30;;;;;;5052026;28;20178;-73
2022/10/06 10:15:32;;;;;;;2.40;2.20;;;18.10;87.30;;;;;;5051665;28;20217;-73
2022/10/06 10:18:04;;;;;;;4.43;2.67;;;18.10;87.40;;;;;;5051825;28;20564;-74
2022/10/06 10:20:49;;;;;;;3.00;2.80;;;18.10;87.30;;;;;;5035566;28;20181;-73
2022/10/06 10:23:20;;;;;;;4.13;3.40;;;18.10;87.40;;;;;;5051676;28;20194;-74
2022/10/06 10:26:07;;;;;;;5.78;3.65;;;18.10;87.30;;;;;;5060935;28;20242;-74
2022/10/06 10:28:50;;;;;;;4.13;3.45;;;18.10;87.40;;;;;;5050425;28;20178;-74
2022/10/06 10:31:52;;;;;;;5.15;3.70;;;18.10;87.40;;;;;;5044363;28;20184;-74
2022/10/06 10:34:59;;;;;;;4.20;3.70;;;18.10;87.60;;;;;;5037617;28;20264;-73
2022/10/06 10:37:37;;;;;;;5.20;4.00;;;18.10;87.80;;;;;;5052674;28;20185;-73
2022/10/06 10:40:28;;;;;;;4.82;3.85;;;18.10;87.60;;;;;;5063214;28;20243;-73
2022/10/06 10:43:19;;;;;;;6.45;4.30;;;18.10;87.70;;;;;;5057601;28;20193;-74
2022/10/06 10:46:00;;;;;;;6.38;4.38;;;18.10;87.60;;;;;;5059572;28;20217;-73
2022/10/06 10:48:36;;;;;;;5.95;4.78;;;18.10;87.60;;;;;;5074177;28;20189;-73
2022/10/06 10:51:18;;;;;;;5.50;4.53;;;18.10;87.90;;;;;;5057450;28;20188;-73
2022/10/06 10:53:59;;;;;;;6.88;4.95;;;18.10;87.80;;;;;;5050979;28;20192;-72
2022/10/06 10:56:26;;;;;;;7.88;5.47;;;18.10;87.50;;;;;;5052355;28;20202;-73
2022/10/06 10:59:03;;;;;;;6.43;5.40;;;18.10;87.70;;;;;;5051091;28;20253;-72
2022/10/06 11:01:45;;;;;;;7.20;5.32;;;18.20;87.80;;;;;;5051223;28;20261;-73
2022/10/06 11:04:13;;;;;;;6.95;5.68;;;18.20;87.90;;;;;;5051133;28;20287;-73
2022/10/06 11:07:34;;;;;;;6.90;5.05;;;18.20;87.90;;;;;;5050951;28;20198;-73
2022/10/06 11:11:04;;;;;;;7.07;5.97;;;18.20;87.90;;;;;;5062053;28;20240;-72
2022/10/06 11:13:47;;;;;;;7.53;5.65;;;18.20;88.10;;;;;;4963695;28;20305;-72
2022/10/06 11:16:46;;;;;;;6.15;5.00;;;18.20;87.90;;;;;;5051045;28;20289;-72
2022/10/06 11:19:52;;;;;;;7.43;5.20;;;18.20;88.30;;;;;;5070800;28;20636;-73
2022/10/06 11:22:28;;;;;;;7.75;6.13;;;18.20;88.30;;;;;;5070772;28;20190;-72
2022/10/06 11:25:25;;;;;;;8.48;6.20;;;18.20;87.90;;;;;;5070822;28;20225;-72
2022/10/06 11:28:16;;;;;;;7.57;5.60;;;18.20;87.90;;;;;;5070884;28;20182;-72
2022/10/06 11:31:17;;;;;;;8.52;5.50;;;18.20;88.20;;;;;;5054531;28;20186;-72
2022/10/06 11:33:53;;;;;;;7.63;5.80;;;18.20;88.20;;;;;;5070932;28;20169;-72
2022/10/06 11:36:44;;;;;;;9.68;6.13;;;18.20;88.30;;;;;;5054377;28;20755;-71
2022/10/06 11:39:22;;;;;;;7.10;5.72;;;18.20;88.30;;;;;;5054258;28;20273;-72
2022/10/06 11:42:02;;;;;;;8.35;5.97;;;18.20;88.30;;;;;;5071911;28;20181;-72
2022/10/06 11:44:39;;;;;;;7.90;5.95;;;18.20;89.00;;;;;;5071912;28;20207;-71
2022/10/06 11:47:13;;;;;;;6.72;5.93;;;18.20;88.70;;;;;;5053715;28;20166;-72
2022/10/06 11:49:54;;;;;;;8.57;6.28;;;18.20;88.90;;;;;;5070795;28;20170;-72
2022/10/06 11:52:20;;;;;;;7.80;5.90;;;18.20;89.30;;;;;;5071974;28;20170;-72
2022/10/06 11:55:05;;;;;;;7.10;5.47;;;18.20;88.90;;;;;;5070445;28;20205;-72
2022/10/06 11:57:32;;;;;;;8.43;5.95;;;18.20;89.00;;;;;;5054211;28;20173;-72
2022/10/06 12:00:03;;;;;;;7.65;6.05;;;18.20;88.60;;;;;;5071999;28;20220;-72
2022/10/06 12:02:37;;;;;;;8.35;5.70;;;18.20;90.20;;;;;;5071923;28;20193;-72
2022/10/06 12:05:08;;;;;;;8.52;6.00;;;18.20;89.30;;;;;;5070184;28;20701;-72
2022/10/06 12:07:55;;;;;;;8.27;6.00;;;18.20;89.00;;;;;;5053778;28;20630;-73
2022/10/06 12:10:27;;;;;;;9.20;6.65;;;18.20;89.00;;;;;;5070772;28;20265;-72
2022/10/06 12:12:56;;;;;;;7.75;6.60;;;18.20;88.90;;;;;;5053897;28;20182;-72
2022/10/06 12:16:05;;;;;;;8.82;6.13;;;18.20;89.00;;;;;;5053485;28;20642;-72
2022/10/06 12:19:07;;;;;;;9.43;6.30;;;18.20;88.90;;;;;;5070380;28;20292;-72
2022/10/06 12:21:44;;;;;;;10.23;6.72;;;18.20;88.70;;;;;;5053982;28;20181;-72
2022/10/06 12:24:33;;;;;;;8.30;6.15;;;18.20;89.00;;;;;;5053386;28;20301;-72
2022/10/06 12:27:29;;;;;;;6.50;5.63;;;18.20;90.00;;;;;;5057209;28;20170;-72
2022/10/06 12:30:17;;;;;;;8.35;6.18;;;18.20;89.20;;;;;;5073900;28;20212;-72
2022/10/06 12:32:56;;;;;;;7.85;5.57;;;18.20;89.10;;;;;;5090501;28;20178;-72
2022/10/06 12:35:30;;;;;;;7.05;5.65;;;18.20;89.10;;;;;;5053403;28;20213;-72
2022/10/06 12:38:18;;;;;;;8.40;6.00;;;18.20;89.50;;;;;;5052324;28;20198;-72
2022/10/06 12:40:53;;;;;;;10.07;6.72;;;18.20;89.20;;;;;;5042814;28;20233;-71
2022/10/06 12:43:21;;;;;;;8.52;6.47;;;18.30;90.10;;;;;;5070451;28;20172;-71
2022/10/06 12:46:06;;;;;;;9.18;6.63;;;18.20;90.20;;;;;;5069891;28;20297;-71
2022/10/06 12:49:00;;;;;;;7.50;5.65;;;18.20;90.10;;;;;;5053724;28;20194;-71
2022/10/06 12:51:39;;;;;;;8.27;6.13;;;18.20;89.90;;;;;;5053384;28;20198;-71
2022/10/06 12:54:08;;;;;;;7.45;5.93;;;18.20;90.10;;;;;;5053168;28;20646;-72
2022/10/06 12:56:39;;;;;;;10.55;6.25;;;18.20;89.70;;;;;;5036743;28;20198;-71
2022/10/06 12:59:22;;;;;;;7.53;5.55;;;18.20;89.70;;;;;;5053841;28;20202;-71
2022/10/06 13:01:51;;;;;;;9.52;5.93;;;18.20;89.60;;;;;;5053511;28;20183;-71
2022/10/06 13:04:39;;;;;;;8.90;6.50;;;18.30;89.70;;;;;;5065724;28;20205;-71
2022/10/06 13:07:26;;;;;;;7.85;5.90;;;18.30;89.80;;;;;;5073285;28;20178;-71
2022/10/06 13:10:09;;;;;;;9.77;5.97;;;18.20;89.70;;;;;;5052060;28;20321;-71
2022/10/06 13:12:38;;;;;;;9.77;6.50;;;18.30;89.90;;;;;;5038519;28;20268;-71
2022/10/06 13:15:33;;;;;;;7.75;5.20;;;18.30;89.80;;;;;;5053888;28;20206;-70
2022/10/06 13:18:20;;;;;;;7.80;5.88;;;18.30;90.10;;;;;;5054260;28;20178;-71
2022/10/06 13:20:51;;;;;;;8.50;6.05;;;18.20;90.00;;;;;;5036637;28;20270;-71
2022/10/06 13:23:32;;;;;;;7.50;5.60;;;18.30;90.00;;;;;;5054165;28;20274;-70
2022/10/06 13:26:29;;;;;;;7.65;6.13;;;18.30;90.10;;;;;;5036117;28;20419;-71
2022/10/06 13:28:57;;;;;;;7.80;5.65;;;18.30;90.10;;;;;;5053901;28;20167;-70
2022/10/06 13:31:35;;;;;;;9.27;6.35;;;18.30;91.00;;;;;;5052781;28;20213;-77